createdAt,value
2023-03-18T00:02:27.994Z,10.58
2023-03-18T00:05:30.854Z,10.57
2023-03-18T00:08:32.822Z,10.59
2023-03-18T00:11:34.239Z,10.56
2023-03-18T00:14:37.824Z,10.57
2023-03-18T00:17:41.141Z,10.51
2023-03-18T00:20:43.056Z,10.48
2023-03-18T00:23:44.453Z,10.48
2023-03-18T00:26:46.336Z,10.49
2023-03-18T00:29:47.842Z,10.46
2023-03-18T00:32:49.637Z,10.44
2023-03-18T00:35:51.162Z,10.43
2023-03-18T00:38:57.454Z,10.40
2023-03-18T00:41:58.980Z,10.39
2023-03-18T00:45:00.484Z,10.35
2023-03-18T00:48:01.915Z,10.32
2023-03-18T00:51:03.802Z,10.33
2023-03-18T00:54:07.857Z,10.32
2023-03-18T00:57:10.778Z,10.34
2023-03-18T01:00:12.976Z,10.35
2023-03-18T01:03:15.197Z,10.37
2023-03-18T01:06:23.332Z,10.34
2023-03-18T01:09:24.860Z,10.34
2023-03-18T01:12:26.279Z,10.33
2023-03-18T01:15:28.208Z,10.31
2023-03-18T01:18:29.994Z,10.34
2023-03-18T01:21:31.974Z,10.29
2023-03-18T01:24:36.441Z,10.25
2023-03-18T01:27:38.554Z,10.27
2023-03-18T01:30:40.897Z,10.25
2023-03-18T01:33:42.363Z,10.22
2023-03-18T01:36:44.203Z,10.47
2023-03-18T01:39:46.575Z,10.45
2023-03-18T01:43:13.574Z,10.41
2023-03-18T01:46:33.039Z,10.38
2023-03-18T01:49:38.792Z,10.38
2023-03-18T01:52:41.583Z,10.43
2023-03-18T01:55:45.272Z,10.42
2023-03-18T01:58:53.714Z,10.46
2023-03-18T02:02:02.755Z,10.42
2023-03-18T02:05:11.137Z,10.44
2023-03-18T02:08:12.978Z,10.33
2023-03-18T02:11:15.863Z,10.25
2023-03-18T02:14:21.834Z,10.20
2023-03-18T02:17:27.033Z,10.20
2023-03-18T02:20:34.310Z,10.26
2023-03-18T02:23:50.869Z,10.21
2023-03-18T02:27:16.149Z,10.14
2023-03-18T02:30:27.003Z,10.13
2023-03-18T02:33:34.479Z,10.06
2023-03-18T02:36:37.157Z,10.05
2023-03-18T02:39:42.668Z,10.17
2023-03-18T02:42:46.590Z,10.07
2023-03-18T02:46:05.330Z,10.15
2023-03-18T02:49:08.064Z,10.11
2023-03-18T02:52:09.992Z,10.06
2023-03-18T02:55:11.394Z,10.09
2023-03-18T02:58:12.922Z,10.10
2023-03-18T03:01:15.930Z,10.13
2023-03-18T03:04:18.769Z,10.18
2023-03-18T03:07:20.424Z,10.20
2023-03-18T03:10:26.138Z,10.13
2023-03-18T03:13:27.787Z,10.08
2023-03-18T03:16:29.661Z,10.12
2023-03-18T03:19:32.008Z,10.13
2023-03-18T03:22:34.160Z,10.13
2023-03-18T03:25:36.453Z,10.14
2023-03-18T03:28:38.108Z,10.21
2023-03-18T03:31:39.683Z,10.23
2023-03-18T03:34:41.529Z,10.27
2023-03-18T03:37:46.854Z,10.29
2023-03-18T03:40:48.487Z,10.29
2023-03-18T03:43:50.440Z,10.23
2023-03-18T03:46:51.942Z,10.24
2023-03-18T03:49:54.376Z,10.28
2023-03-18T03:52:55.964Z,10.30
2023-03-18T03:55:59.233Z,10.33
2023-03-18T03:59:01.444Z,10.33
2023-03-18T04:02:23.607Z,10.35
2023-03-18T04:05:25.792Z,10.35
2023-03-18T04:08:27.524Z,10.42
2023-03-18T04:11:29.786Z,10.49
2023-03-18T04:14:31.727Z,10.55
2023-03-18T04:17:34.662Z,10.61
2023-03-18T04:20:38.057Z,10.52
2023-03-18T04:23:47.769Z,10.46
2023-03-18T04:26:51.539Z,10.43
2023-03-18T04:29:52.990Z,10.41
2023-03-18T04:33:03.148Z,10.41
2023-03-18T04:36:06.379Z,10.45
2023-03-18T04:39:09.555Z,10.48
2023-03-18T04:42:11.469Z,10.46
2023-03-18T04:45:14.023Z,10.50
2023-03-18T04:48:15.587Z,10.48
2023-03-18T04:51:20.594Z,10.48
2023-03-18T04:54:22.500Z,10.49
2023-03-18T04:57:27.616Z,10.42
2023-03-18T05:00:30.131Z,10.39
2023-03-18T05:03:45.320Z,10.37
2023-03-18T05:06:49.260Z,10.32
2023-03-18T05:09:50.713Z,10.31
2023-03-18T05:12:53.279Z,10.34
2023-03-18T05:16:02.559Z,10.36
2023-03-18T05:19:04.437Z,10.39
2023-03-18T05:22:06.922Z,10.40
2023-03-18T05:25:11.435Z,10.46
2023-03-18T05:28:14.249Z,10.44
2023-03-18T05:31:26.327Z,10.45
2023-03-18T05:34:28.244Z,10.45
2023-03-18T05:37:29.851Z,10.37
2023-03-18T05:40:37.538Z,10.35
2023-03-18T05:43:46.214Z,10.35
2023-03-18T05:46:47.799Z,10.33
2023-03-18T05:50:00.049Z,10.28
2023-03-18T05:53:03.819Z,10.21
2023-03-18T05:56:10.400Z,10.10
2023-03-18T05:59:14.065Z,10.08
2023-03-18T06:02:21.790Z,10.08
2023-03-18T06:05:24.296Z,10.09
2023-03-18T06:08:25.744Z,10.09
2023-03-18T06:11:29.290Z,10.10
2023-03-18T06:14:31.334Z,10.12
2023-03-18T06:17:36.567Z,10.15
2023-03-18T06:20:38.108Z,10.18
2023-03-18T06:23:39.561Z,10.28
2023-03-18T06:26:41.690Z,10.30
2023-03-18T06:29:44.071Z,10.36
2023-03-18T06:32:49.304Z,10.40
2023-03-18T06:35:52.507Z,10.46
2023-03-18T06:38:55.851Z,10.51
2023-03-18T06:41:59.501Z,10.54
2023-03-18T06:45:05.691Z,10.51
2023-03-18T06:48:19.793Z,10.56
2023-03-18T06:51:23.021Z,10.55
2023-03-18T06:54:26.200Z,10.59
2023-03-18T06:57:28.928Z,10.55
2023-03-18T07:00:32.510Z,10.56
2023-03-18T07:03:35.689Z,10.54
2023-03-18T07:06:37.960Z,10.53
2023-03-18T07:09:39.464Z,10.58
2023-03-18T07:12:41.026Z,10.64
2023-03-18T07:15:42.901Z,10.65
2023-03-18T07:18:44.709Z,10.76
2023-03-18T07:21:47.436Z,10.96
2023-03-18T07:24:49.166Z,11.16
2023-03-18T07:27:50.632Z,11.19
2023-03-18T07:30:54.357Z,11.32
2023-03-18T07:33:57.260Z,11.37
2023-03-18T07:36:58.902Z,11.64
2023-03-18T07:40:00.406Z,11.85
2023-03-18T07:43:01.868Z,12.07
2023-03-18T07:46:04.477Z,12.18
2023-03-18T07:49:05.961Z,12.31
2023-03-18T07:52:08.644Z,12.52
2023-03-18T07:55:11.874Z,12.90
2023-03-18T07:58:13.599Z,13.15
2023-03-18T08:01:18.258Z,13.32
2023-03-18T08:04:19.928Z,13.46
2023-03-18T08:07:22.935Z,13.62
2023-03-18T08:10:25.318Z,13.83
2023-03-18T08:13:26.979Z,13.85
2023-03-18T08:16:28.598Z,13.93
2023-03-18T08:19:30.177Z,14.07
2023-03-18T08:22:31.925Z,14.22
2023-03-18T08:25:33.545Z,14.41
2023-03-18T08:28:35.067Z,14.60
2023-03-18T08:31:36.570Z,14.63
2023-03-18T08:34:38.137Z,14.71
2023-03-18T08:37:39.573Z,14.72
2023-03-18T08:40:42.303Z,14.78
2023-03-18T08:43:44.991Z,14.80
2023-03-18T08:46:46.487Z,14.82
2023-03-18T08:49:50.366Z,15.09
2023-03-18T08:52:52.763Z,14.92
2023-03-18T08:55:54.260Z,15.16
2023-03-18T08:58:56.034Z,15.29
2023-03-18T09:01:57.673Z,15.49
2023-03-18T09:04:59.112Z,15.49
2023-03-18T09:08:00.515Z,15.38
2023-03-18T09:11:02.111Z,15.57
2023-03-18T09:14:04.833Z,15.72
2023-03-18T09:17:06.595Z,15.73
2023-03-18T09:20:10.810Z,15.78
2023-03-18T09:23:14.268Z,15.86
2023-03-18T09:26:16.897Z,16.11
2023-03-18T09:29:18.305Z,16.18
2023-03-18T09:32:20.136Z,16.33
2023-03-18T09:35:21.757Z,16.36
2023-03-18T09:38:23.638Z,16.50
2023-03-18T09:41:49.531Z,16.64
2023-03-18T09:44:56.781Z,16.77
2023-03-18T09:48:38.828Z,16.51
2023-03-18T09:52:07.051Z,16.89
2023-03-18T09:55:11.527Z,17.17
2023-03-18T09:58:44.932Z,17.44
2023-03-18T10:01:50.531Z,17.64
2023-03-18T10:04:58.406Z,17.23
2023-03-18T10:08:07.616Z,16.99
2023-03-18T10:11:36.047Z,17.11
2023-03-18T10:14:45.858Z,17.48
2023-03-18T10:18:11.515Z,17.63
2023-03-18T10:21:31.108Z,17.75
2023-03-18T10:24:40.540Z,17.71
2023-03-18T10:27:47.896Z,17.84
2023-03-18T10:31:11.168Z,18.04
2023-03-18T10:34:49.121Z,18.25
2023-03-18T10:37:54.455Z,18.13
2023-03-18T10:40:56.279Z,18.31
2023-03-18T10:44:02.899Z,18.08
2023-03-18T10:47:18.934Z,18.03
2023-03-18T10:50:28.518Z,17.78
2023-03-18T10:53:39.814Z,17.77
2023-03-18T10:56:41.850Z,17.87
2023-03-18T10:59:47.577Z,18.04
2023-03-18T11:02:49.733Z,18.30
2023-03-18T11:05:52.544Z,17.62
2023-03-18T11:09:04.924Z,17.42
2023-03-18T11:12:19.379Z,17.63
2023-03-18T11:15:21.013Z,18.08
2023-03-18T11:18:25.767Z,18.01
2023-03-18T11:21:29.244Z,17.91
2023-03-18T11:24:39.521Z,17.97
2023-03-18T11:27:51.090Z,18.15
2023-03-18T11:30:57.446Z,18.23
2023-03-18T11:33:59.201Z,18.48
2023-03-18T11:37:05.899Z,18.54
2023-03-18T11:40:18.280Z,18.87
2023-03-18T11:43:22.842Z,18.83
2023-03-18T11:46:27.577Z,19.10
2023-03-18T11:49:31.201Z,19.11
2023-03-18T11:52:55.947Z,19.23
2023-03-18T11:56:21.451Z,18.94
2023-03-18T11:59:56.320Z,19.31
2023-03-18T12:03:25.352Z,19.67
2023-03-18T12:06:33.003Z,19.73
2023-03-18T12:09:43.761Z,19.78
2023-03-18T12:12:59.765Z,19.74
2023-03-18T12:16:41.223Z,19.65
2023-03-18T12:19:56.939Z,19.40
2023-03-18T12:23:03.248Z,19.57
2023-03-18T12:26:09.454Z,19.67
2023-03-18T12:29:45.833Z,19.50
2023-03-18T12:33:06.291Z,19.45
2023-03-18T12:36:50.053Z,19.12
2023-03-18T12:40:21.328Z,19.55
2023-03-18T12:43:31.793Z,19.38
2023-03-18T12:46:42.121Z,19.30
2023-03-18T12:49:58.587Z,19.56
2023-03-18T12:53:03.352Z,19.66
2023-03-18T12:56:12.377Z,19.60
2023-03-18T12:59:27.532Z,19.33
2023-03-18T13:02:47.808Z,19.50
2023-03-18T13:05:54.407Z,19.97
2023-03-18T13:09:17.100Z,20.28
2023-03-18T13:12:35.222Z,20.07
2023-03-18T13:15:46.249Z,19.81
2023-03-18T13:18:51.921Z,20.11
2023-03-18T13:22:18.223Z,20.05
2023-03-18T13:26:01.581Z,20.33
2023-03-18T13:29:31.284Z,20.10
2023-03-18T13:33:01.164Z,20.10
2023-03-18T13:36:39.082Z,20.40
2023-03-18T13:40:09.346Z,20.68
2023-03-18T13:43:17.344Z,20.49
2023-03-18T13:46:23.601Z,20.30
2023-03-18T13:49:29.754Z,20.22
2023-03-18T13:52:44.820Z,20.11
2023-03-18T13:55:57.579Z,20.30
2023-03-18T13:59:05.672Z,20.27
2023-03-18T14:02:31.097Z,20.81
2023-03-18T14:05:33.210Z,20.77
2023-03-18T14:08:39.143Z,20.94
2023-03-18T14:11:46.810Z,21.14
2023-03-18T14:14:48.166Z,21.06
2023-03-18T14:17:56.912Z,21.39
2023-03-18T14:21:02.604Z,21.15
2023-03-18T14:24:21.888Z,20.68
2023-03-18T14:27:23.391Z,20.28
2023-03-18T14:30:31.687Z,20.22
2023-03-18T14:33:35.155Z,20.39
2023-03-18T14:36:53.643Z,20.15
2023-03-18T14:40:00.895Z,19.75
2023-03-18T14:43:10.248Z,19.82
2023-03-18T14:46:18.854Z,19.78
2023-03-18T14:49:44.674Z,19.85
2023-03-18T14:52:54.414Z,19.92
2023-03-18T14:55:58.703Z,19.91
2023-03-18T14:59:00.973Z,19.96
2023-03-18T15:02:06.532Z,20.22
2023-03-18T15:05:10.543Z,20.29
2023-03-18T15:08:21.019Z,20.23
2023-03-18T15:11:23.687Z,19.82
2023-03-18T15:14:32.011Z,19.86
2023-03-18T15:17:33.482Z,19.92
2023-03-18T15:20:36.254Z,19.66
2023-03-18T15:23:45.610Z,19.58
2023-03-18T15:26:56.879Z,19.62
2023-03-18T15:30:00.907Z,19.49
2023-03-18T15:33:20.454Z,19.21
2023-03-18T15:36:21.852Z,19.19
2023-03-18T15:39:32.058Z,19.30
2023-03-18T15:42:34.571Z,19.31
2023-03-18T15:45:40.995Z,19.31
2023-03-18T15:48:46.503Z,19.40
2023-03-18T15:51:49.572Z,19.64
2023-03-18T15:54:52.012Z,19.61
2023-03-18T15:57:53.782Z,19.91
2023-03-18T16:00:56.686Z,19.93
2023-03-18T16:03:58.107Z,19.84
2023-03-18T16:06:59.623Z,19.67
2023-03-18T16:10:01.538Z,19.62
2023-03-18T16:13:04.257Z,19.54
2023-03-18T16:16:06.266Z,19.55
2023-03-18T16:19:25.671Z,19.69
2023-03-18T16:22:27.629Z,19.67
2023-03-18T16:25:29.020Z,19.42
2023-03-18T16:28:30.827Z,19.10
2023-03-18T16:31:32.917Z,19.06
2023-03-18T16:34:34.813Z,18.96
2023-03-18T16:37:36.227Z,18.86
2023-03-18T16:40:37.660Z,18.65
2023-03-18T16:43:39.102Z,18.58
2023-03-18T16:46:41.522Z,18.53
2023-03-18T16:49:43.338Z,18.44
2023-03-18T16:52:47.363Z,18.37
2023-03-18T16:55:55.567Z,18.31
2023-03-18T16:58:57.857Z,18.19
2023-03-18T17:02:00.321Z,18.08
2023-03-18T17:05:01.996Z,18.06
2023-03-18T17:08:03.387Z,17.96
2023-03-18T17:11:05.257Z,17.84
2023-03-18T17:14:11.100Z,17.71
2023-03-18T17:17:30.548Z,17.61
2023-03-18T17:20:32.452Z,17.56
2023-03-18T17:23:34.521Z,17.51
2023-03-18T17:26:36.024Z,17.42
2023-03-18T17:29:37.487Z,17.39
2023-03-18T17:32:39.699Z,17.31
2023-03-18T17:35:41.129Z,17.19
2023-03-18T17:38:42.627Z,17.04
2023-03-18T17:41:44.086Z,16.96
2023-03-18T17:44:45.526Z,16.86
2023-03-18T17:47:47.521Z,16.80
2023-03-18T17:50:51.655Z,16.74
2023-03-18T17:53:59.002Z,16.68
2023-03-18T17:57:00.402Z,16.58
2023-03-18T18:00:01.843Z,16.43
2023-03-18T18:03:19.306Z,16.37
2023-03-18T18:06:28.840Z,16.17
2023-03-18T18:09:30.364Z,16.07
2023-03-18T18:12:31.763Z,16.04
2023-03-18T18:15:33.417Z,15.99
2023-03-18T18:18:36.303Z,15.98
2023-03-18T18:21:37.799Z,15.98
2023-03-18T18:24:39.220Z,15.91
2023-03-18T18:27:41.634Z,15.77
2023-03-18T18:30:43.021Z,15.71
2023-03-18T18:33:45.861Z,15.63
2023-03-18T18:36:48.627Z,15.56
2023-03-18T18:39:50.020Z,15.35
2023-03-18T18:42:51.619Z,15.29
2023-03-18T18:45:54.563Z,15.22
2023-03-18T18:48:56.439Z,15.16
2023-03-18T18:52:00.155Z,15.11
2023-03-18T18:55:01.588Z,14.99
2023-03-18T18:58:04.226Z,14.90
2023-03-18T19:01:06.136Z,14.84
2023-03-18T19:04:14.485Z,14.81
2023-03-18T19:07:16.111Z,14.76
2023-03-18T19:10:18.241Z,14.70
2023-03-18T19:13:19.697Z,14.53
2023-03-18T19:16:33.969Z,14.38
2023-03-18T19:19:35.539Z,14.26
2023-03-18T19:22:36.999Z,14.28
2023-03-18T19:25:38.444Z,14.33
2023-03-18T19:28:58.380Z,14.36
2023-03-18T19:32:03.470Z,14.34
2023-03-18T19:35:05.523Z,14.31
2023-03-18T19:38:08.169Z,14.31
2023-03-18T19:41:09.580Z,14.35
2023-03-18T19:44:20.396Z,14.48
2023-03-18T19:47:28.057Z,14.57
2023-03-18T19:50:29.476Z,14.53
2023-03-18T19:53:31.416Z,14.43
2023-03-18T19:56:32.797Z,14.52
2023-03-18T19:59:39.337Z,14.55
2023-03-18T20:02:41.250Z,14.51
2023-03-18T20:05:42.774Z,14.47
2023-03-18T20:08:44.388Z,14.48
2023-03-18T20:11:48.578Z,14.40
2023-03-18T20:14:50.576Z,14.32
2023-03-18T20:17:52.502Z,14.26
2023-03-18T20:20:54.059Z,14.30
2023-03-18T20:24:00.913Z,14.32
2023-03-18T20:27:02.316Z,14.26
2023-03-18T20:30:30.247Z,14.28
2023-03-18T20:33:32.469Z,14.32
2023-03-18T20:36:33.949Z,14.26
2023-03-18T20:39:35.525Z,14.31
2023-03-18T20:42:37.052Z,14.27
2023-03-18T20:45:38.521Z,14.15
2023-03-18T20:48:40.888Z,14.12
2023-03-18T20:51:42.436Z,14.11
2023-03-18T20:54:43.903Z,14.13
2023-03-18T20:57:45.715Z,14.11
2023-03-18T21:00:47.434Z,14.06
2023-03-18T21:03:48.938Z,14.04
2023-03-18T21:06:50.404Z,14.04
2023-03-18T21:09:52.091Z,14.02
2023-03-18T21:12:53.748Z,14.02
2023-03-18T21:15:56.907Z,13.99
2023-03-18T21:18:58.282Z,14.01
2023-03-18T21:22:00.242Z,13.96
2023-03-18T21:25:01.751Z,13.88
2023-03-18T21:28:03.463Z,13.88
2023-03-18T21:31:20.327Z,13.81
2023-03-18T21:34:22.332Z,13.76
2023-03-18T21:37:26.418Z,13.73
2023-03-18T21:40:27.939Z,13.68
2023-03-18T21:43:33.620Z,13.68
2023-03-18T21:46:35.170Z,13.67
2023-03-18T21:49:36.587Z,13.62
2023-03-18T21:52:38.606Z,13.53
2023-03-18T21:55:39.977Z,13.47
2023-03-18T21:58:41.375Z,13.40
2023-03-18T22:01:42.909Z,13.34
2023-03-18T22:04:44.369Z,13.32
2023-03-18T22:07:46.070Z,13.22
2023-03-18T22:10:49.680Z,13.18
2023-03-18T22:13:51.160Z,13.12
2023-03-18T22:16:52.583Z,13.11
2023-03-18T22:19:55.593Z,13.07
2023-03-18T22:22:57.096Z,12.96
2023-03-18T22:25:58.613Z,12.81
2023-03-18T22:29:00.012Z,12.73
2023-03-18T22:32:01.394Z,12.65
2023-03-18T22:35:07.011Z,12.63
2023-03-18T22:38:13.780Z,12.53
2023-03-18T22:41:21.643Z,12.50
2023-03-18T22:44:24.108Z,12.49
2023-03-18T22:47:26.162Z,12.39
2023-03-18T22:50:30.458Z,12.30
2023-03-18T22:53:38.447Z,12.38
2023-03-18T22:56:39.832Z,12.27
2023-03-18T22:59:41.215Z,12.17
2023-03-18T23:02:42.749Z,12.11
2023-03-18T23:05:45.943Z,12.09
2023-03-18T23:08:47.854Z,11.97
2023-03-18T23:11:49.355Z,11.89
2023-03-18T23:14:50.848Z,11.82
2023-03-18T23:17:52.325Z,11.79
2023-03-18T23:20:53.789Z,11.70
2023-03-18T23:23:56.137Z,11.74
2023-03-18T23:26:57.657Z,11.72
2023-03-18T23:29:59.036Z,11.80
2023-03-18T23:33:00.847Z,11.77
2023-03-18T23:36:02.600Z,11.85
2023-03-18T23:39:04.036Z,11.74
2023-03-18T23:42:06.129Z,11.78
2023-03-18T23:45:08.315Z,11.80
2023-03-18T23:48:09.907Z,11.84
2023-03-18T23:51:11.295Z,11.86
2023-03-18T23:54:12.936Z,11.89
2023-03-18T23:57:14.372Z,12.00
